createdAt,value
2022-11-09T00:00:47.684Z,4.23
2022-11-09T00:03:16.230Z,2.53
2022-11-09T00:05:44.605Z,2.73
2022-11-09T00:08:14.320Z,1.70
2022-11-09T00:10:42.568Z,1.30
2022-11-09T00:13:10.794Z,2.60
2022-11-09T00:15:39.009Z,1.17
2022-11-09T00:18:07.433Z,2.63
2022-11-09T00:20:35.653Z,0.80
2022-11-09T00:23:03.915Z,1.23
2022-11-09T00:25:33.622Z,0.97
2022-11-09T00:28:01.816Z,1.27
2022-11-09T00:30:31.109Z,0.80
2022-11-09T00:32:59.406Z,1.97
2022-11-09T00:35:27.963Z,1.97
2022-11-09T00:37:56.286Z,1.30
2022-11-09T00:40:24.681Z,1.63
2022-11-09T00:42:54.341Z,1.13
2022-11-09T00:45:22.604Z,1.70
2022-11-09T00:47:51.146Z,1.33
2022-11-09T00:50:19.408Z,1.50
2022-11-09T00:52:48.657Z,4.20
2022-11-09T00:55:16.979Z,1.37
2022-11-09T00:57:45.207Z,1.90
2022-11-09T01:00:18.529Z,1.13
2022-11-09T01:02:46.767Z,2.07
2022-11-09T01:05:15.046Z,2.03
2022-11-09T01:07:43.276Z,2.00
2022-11-09T01:10:11.776Z,1.17
2022-11-09T01:12:39.976Z,1.87
2022-11-09T01:15:08.961Z,0.73
2022-11-09T01:17:38.676Z,1.27
2022-11-09T01:20:08.037Z,0.50
2022-11-09T01:22:36.316Z,1.97
2022-11-09T01:25:04.761Z,0.87
2022-11-09T01:27:33.737Z,0.73
2022-11-09T01:30:02.181Z,1.70
2022-11-09T01:32:33.798Z,1.30
2022-11-09T01:35:03.495Z,1.07
2022-11-09T01:37:31.749Z,2.23
2022-11-09T01:40:00.241Z,0.60
2022-11-09T01:42:28.646Z,1.67
2022-11-09T01:45:25.360Z,1.73
2022-11-09T01:47:57.750Z,1.33
2022-11-09T01:50:34.117Z,2.40
2022-11-09T01:53:03.873Z,1.93
2022-11-09T01:55:32.572Z,0.50
2022-11-09T01:58:05.617Z,1.27
2022-11-09T02:00:35.522Z,0.60
2022-11-09T02:03:08.808Z,1.33
2022-11-09T02:05:41.833Z,0.87
2022-11-09T02:08:11.867Z,0.57
2022-11-09T02:10:46.886Z,0.90
2022-11-09T02:13:19.243Z,1.17
2022-11-09T02:15:47.803Z,1.00
2022-11-09T02:18:16.277Z,1.00
2022-11-09T02:20:51.170Z,2.83
2022-11-09T02:23:20.612Z,0.83
2022-11-09T02:25:52.806Z,0.50
2022-11-09T02:28:21.889Z,2.10
2022-11-09T02:30:53.665Z,1.70
2022-11-09T02:33:22.056Z,1.47
2022-11-09T02:35:52.149Z,1.43
2022-11-09T02:38:20.553Z,2.83
2022-11-09T02:40:51.529Z,1.63
2022-11-09T02:43:21.176Z,2.20
2022-11-09T02:45:49.620Z,0.67
2022-11-09T02:48:17.919Z,1.53
2022-11-09T02:50:46.194Z,0.83
2022-11-09T02:53:16.030Z,1.10
2022-11-09T02:55:44.454Z,1.90
2022-11-09T02:58:12.800Z,0.97
2022-11-09T03:00:41.016Z,1.40
2022-11-09T03:03:09.339Z,0.30
2022-11-09T03:05:37.918Z,2.40
2022-11-09T03:08:06.444Z,1.33
2022-11-09T03:10:36.089Z,1.00
2022-11-09T03:13:04.396Z,0.60
2022-11-09T03:15:32.710Z,0.93
2022-11-09T03:18:00.985Z,0.73
2022-11-09T03:20:29.234Z,0.70
2022-11-09T03:22:59.570Z,3.00
2022-11-09T03:25:28.434Z,1.10
2022-11-09T03:28:00.757Z,1.50
2022-11-09T03:30:29.396Z,0.97
2022-11-09T03:33:00.859Z,1.13
2022-11-09T03:35:29.640Z,1.70
2022-11-09T03:37:58.057Z,0.90
2022-11-09T03:40:26.338Z,1.87
2022-11-09T03:42:54.614Z,2.53
2022-11-09T03:45:24.674Z,1.97
2022-11-09T03:47:55.004Z,1.57
2022-11-09T03:50:23.285Z,1.07
2022-11-09T03:52:51.550Z,1.50
2022-11-09T03:55:20.022Z,2.60
2022-11-09T03:57:48.536Z,0.70
2022-11-09T04:00:20.002Z,1.17
2022-11-09T04:02:49.776Z,1.70
2022-11-09T04:05:18.700Z,1.57
2022-11-09T04:07:50.665Z,1.20
2022-11-09T04:10:19.275Z,1.77
2022-11-09T04:12:47.888Z,0.80
2022-11-09T04:15:16.446Z,3.43
2022-11-09T04:17:46.002Z,0.80
2022-11-09T04:20:15.769Z,1.47
2022-11-09T04:22:44.019Z,0.63
2022-11-09T04:25:12.361Z,1.60
2022-11-09T04:27:40.600Z,0.70
2022-11-09T04:30:10.259Z,1.40
2022-11-09T04:32:38.550Z,1.13
2022-11-09T04:35:07.930Z,1.00
2022-11-09T04:37:37.585Z,1.67
2022-11-09T04:40:06.607Z,0.83
2022-11-09T04:42:34.871Z,1.43
2022-11-09T04:45:03.162Z,2.43
2022-11-09T04:47:31.437Z,1.03
2022-11-09T04:49:59.691Z,1.30
2022-11-09T04:52:27.950Z,0.73
2022-11-09T04:54:57.591Z,0.83
2022-11-09T04:57:25.876Z,1.90
2022-11-09T04:59:54.107Z,1.20
2022-11-09T05:02:22.350Z,2.20
2022-11-09T05:04:50.645Z,1.80
2022-11-09T05:07:18.982Z,1.50
2022-11-09T05:09:47.287Z,1.33
2022-11-09T05:12:17.039Z,2.30
2022-11-09T05:14:45.276Z,2.00
2022-11-09T05:17:13.650Z,4.43
2022-11-09T05:19:41.851Z,0.97
2022-11-09T05:22:27.610Z,3.43
2022-11-09T05:24:55.905Z,2.83
2022-11-09T05:27:25.559Z,5.20
2022-11-09T05:29:53.788Z,3.50
2022-11-09T05:32:22.025Z,3.03
2022-11-09T05:34:50.301Z,2.33
2022-11-09T05:37:20.415Z,3.37
2022-11-09T05:39:48.696Z,4.40
2022-11-09T05:42:16.929Z,3.17
2022-11-09T05:44:46.645Z,4.90
2022-11-09T05:47:14.930Z,4.17
2022-11-09T05:49:43.239Z,2.20
2022-11-09T05:52:11.515Z,0.93
2022-11-09T05:54:39.766Z,2.37
2022-11-09T05:57:08.133Z,2.53
2022-11-09T05:59:36.440Z,3.03
2022-11-09T06:02:06.144Z,1.20
2022-11-09T06:04:34.488Z,2.53
2022-11-09T06:07:03.612Z,4.80
2022-11-09T06:09:31.899Z,1.70
2022-11-09T06:12:00.232Z,3.20
2022-11-09T06:14:28.617Z,2.70
2022-11-09T06:16:56.956Z,0.87
2022-11-09T06:19:26.622Z,1.27
2022-11-09T06:21:54.885Z,2.07
2022-11-09T06:24:23.105Z,3.93
2022-11-09T06:26:51.387Z,1.27
2022-11-09T06:29:19.918Z,1.10
2022-11-09T06:31:49.166Z,2.10
2022-11-09T06:34:17.414Z,0.47
2022-11-09T06:36:47.261Z,2.00
2022-11-09T06:39:15.516Z,2.03
2022-11-09T06:41:47.415Z,1.73
2022-11-09T06:44:16.486Z,2.70
2022-11-09T06:46:44.752Z,2.00
2022-11-09T06:49:13.029Z,2.27
2022-11-09T06:51:41.367Z,2.43
2022-11-09T06:54:10.976Z,4.03
2022-11-09T06:56:39.196Z,2.63
2022-11-09T06:59:07.981Z,0.97
2022-11-09T07:01:37.846Z,1.33
2022-11-09T07:04:06.568Z,2.13
2022-11-09T07:06:34.895Z,3.50
2022-11-09T07:09:03.211Z,1.90
2022-11-09T07:11:32.894Z,1.40
2022-11-09T07:14:01.532Z,2.07
2022-11-09T07:16:29.991Z,2.77
2022-11-09T07:18:58.380Z,3.23
2022-11-09T07:21:26.674Z,3.13
2022-11-09T07:23:54.966Z,1.60
2022-11-09T07:26:23.179Z,1.93
2022-11-09T07:28:52.827Z,1.37
2022-11-09T07:31:21.054Z,1.03
2022-11-09T07:33:51.573Z,2.57
2022-11-09T07:36:21.556Z,1.53
2022-11-09T07:38:50.183Z,2.17
2022-11-09T07:41:18.418Z,3.77
2022-11-09T07:43:46.777Z,1.97
2022-11-09T07:46:17.131Z,3.50
2022-11-09T07:48:45.488Z,3.57
2022-11-09T07:51:13.739Z,5.83
2022-11-09T07:53:42.109Z,4.53
2022-11-09T07:56:10.587Z,3.77
2022-11-09T07:58:38.839Z,1.50
2022-11-09T08:01:11.022Z,2.10
2022-11-09T08:03:40.681Z,3.53
2022-11-09T08:06:10.274Z,3.27
2022-11-09T08:08:40.293Z,3.37
2022-11-09T08:11:08.697Z,6.53
2022-11-09T08:13:36.944Z,2.67
2022-11-09T08:16:06.131Z,6.70
2022-11-09T08:18:34.438Z,1.70
2022-11-09T08:21:05.444Z,3.30
2022-11-09T08:23:33.726Z,6.03
2022-11-09T08:26:04.719Z,2.50
2022-11-09T08:28:33.693Z,4.43
2022-11-09T08:31:04.796Z,1.93
2022-11-09T08:33:36.878Z,1.33
2022-11-09T08:36:11.960Z,2.80
2022-11-09T08:38:40.535Z,3.83
2022-11-09T08:41:13.439Z,4.00
2022-11-09T08:43:43.875Z,4.03
2022-11-09T08:46:13.228Z,3.83
2022-11-09T08:48:41.898Z,2.63
2022-11-09T08:51:12.659Z,3.03
2022-11-09T08:53:44.724Z,3.90
2022-11-09T08:56:19.123Z,5.10
2022-11-09T08:58:48.505Z,2.47
2022-11-09T09:01:17.784Z,3.13
2022-11-09T09:03:47.032Z,3.67
2022-11-09T09:06:19.168Z,3.77
2022-11-09T09:08:47.451Z,2.17
2022-11-09T09:11:16.690Z,2.80
2022-11-09T09:13:45.239Z,2.63
2022-11-09T09:16:15.478Z,4.90
2022-11-09T09:18:44.598Z,3.53
2022-11-09T09:21:13.648Z,3.73
2022-11-09T09:23:43.718Z,3.20
2022-11-09T09:26:11.985Z,2.53
2022-11-09T09:28:40.806Z,2.50
2022-11-09T09:31:10.364Z,2.97
2022-11-09T09:33:41.816Z,5.97
2022-11-09T09:36:17.284Z,2.80
2022-11-09T09:38:47.021Z,2.67
2022-11-09T09:41:23.224Z,2.50
2022-11-09T09:43:56.171Z,3.90
2022-11-09T09:46:28.174Z,1.83
2022-11-09T09:49:01.455Z,3.07
2022-11-09T09:51:39.196Z,2.00
2022-11-09T09:54:13.911Z,2.33
2022-11-09T09:56:45.574Z,2.93
2022-11-09T09:59:20.758Z,2.27
2022-11-09T10:01:50.599Z,2.23
2022-11-09T10:04:21.390Z,3.10
2022-11-09T10:07:07.306Z,3.63
2022-11-09T10:09:54.831Z,2.80
2022-11-09T10:12:33.119Z,2.23
2022-11-09T10:15:21.104Z,2.37
2022-11-09T10:18:07.397Z,3.40
2022-11-09T10:21:09.913Z,2.40
2022-11-09T10:23:45.149Z,2.30
2022-11-09T10:26:20.365Z,3.20
2022-11-09T10:29:15.156Z,3.50
2022-11-09T10:31:45.782Z,2.87
2022-11-09T10:34:20.168Z,2.80
2022-11-09T10:36:55.599Z,2.60
2022-11-09T10:39:27.097Z,1.53
2022-11-09T10:41:56.914Z,1.40
2022-11-09T10:44:25.180Z,2.27
2022-11-09T10:47:05.425Z,3.03
2022-11-09T10:49:34.359Z,1.37
2022-11-09T10:52:02.869Z,2.23
2022-11-09T10:54:34.886Z,3.03
2022-11-09T10:57:14.387Z,4.03
2022-11-09T10:59:50.035Z,3.23
2022-11-09T11:02:42.272Z,2.93
2022-11-09T11:05:34.890Z,2.20
2022-11-09T11:08:23.335Z,1.87
2022-11-09T11:11:02.142Z,1.97
2022-11-09T11:13:36.566Z,2.20
2022-11-09T11:16:17.462Z,1.40
2022-11-09T11:18:48.434Z,2.43
2022-11-09T11:21:19.507Z,2.50
2022-11-09T11:24:12.132Z,1.70
2022-11-09T11:26:54.564Z,3.77
2022-11-09T11:29:49.135Z,1.43
2022-11-09T11:32:20.438Z,1.30
2022-11-09T11:35:05.998Z,1.57
2022-11-09T11:37:48.962Z,1.80
2022-11-09T11:40:28.024Z,1.37
2022-11-09T11:43:26.747Z,1.93
2022-11-09T11:46:08.720Z,2.37
2022-11-09T11:49:10.279Z,1.50
2022-11-09T11:51:47.851Z,1.57
2022-11-09T11:54:30.804Z,1.17
2022-11-09T11:57:14.558Z,1.90
2022-11-09T12:00:02.748Z,1.10
2022-11-09T12:03:15.504Z,2.83
2022-11-09T12:06:12.407Z,1.70
2022-11-09T12:08:53.558Z,1.67
2022-11-09T12:11:42.785Z,1.33
2022-11-09T12:14:30.765Z,1.77
2022-11-09T12:17:20.635Z,1.67
2022-11-09T12:20:16.817Z,2.43
2022-11-09T12:23:02.995Z,1.30
2022-11-09T12:25:38.786Z,1.67
2022-11-09T12:28:20.001Z,1.83
2022-11-09T12:31:05.327Z,1.20
2022-11-09T12:33:47.255Z,2.63
2022-11-09T12:36:22.168Z,1.03
2022-11-09T12:39:01.455Z,1.10
2022-11-09T12:41:39.946Z,1.87
2022-11-09T12:44:18.682Z,2.60
2022-11-09T12:46:55.555Z,2.47
2022-11-09T12:49:37.948Z,1.53
2022-11-09T12:52:13.651Z,3.03
2022-11-09T12:54:50.661Z,1.83
2022-11-09T12:57:24.831Z,1.83
2022-11-09T12:59:55.165Z,1.20
2022-11-09T13:02:32.135Z,2.87
2022-11-09T13:05:06.160Z,3.10
2022-11-09T13:07:51.865Z,1.83
2022-11-09T13:10:29.010Z,1.73
2022-11-09T13:13:06.466Z,1.75
2022-11-09T13:15:38.132Z,1.90
2022-11-09T13:18:27.410Z,2.78
2022-11-09T13:20:57.227Z,1.17
2022-11-09T13:26:47.399Z,1.83
2022-11-09T13:29:27.795Z,1.83
2022-11-09T13:32:26.977Z,2.25
2022-11-09T13:34:56.681Z,1.15
2022-11-09T13:37:49.598Z,2.78
2022-11-09T13:40:48.605Z,2.72
2022-11-09T13:43:23.787Z,2.08
2022-11-09T13:45:56.301Z,1.58
2022-11-09T13:48:34.861Z,2.13
2022-11-09T13:51:06.895Z,1.38
2022-11-09T13:53:53.046Z,1.63
2022-11-09T13:56:30.267Z,4.10
2022-11-09T13:59:04.180Z,2.35
2022-11-09T14:01:38.353Z,1.33
2022-11-09T14:04:07.058Z,1.38
2022-11-09T14:06:35.466Z,1.83
2022-11-09T14:09:04.576Z,1.10
2022-11-09T14:12:01.145Z,3.08
2022-11-09T14:15:10.568Z,1.10
2022-11-09T14:17:47.220Z,1.27
2022-11-09T14:20:29.069Z,1.67
2022-11-09T14:22:57.784Z,1.87
2022-11-09T14:25:26.561Z,0.90
2022-11-09T14:27:58.483Z,3.90
2022-11-09T14:30:28.829Z,2.43
2022-11-09T14:32:58.928Z,1.90
2022-11-09T14:35:30.567Z,1.43
2022-11-09T14:38:01.606Z,5.30
2022-11-09T14:40:32.145Z,1.20
2022-11-09T14:43:04.352Z,1.37
2022-11-09T14:45:32.837Z,5.10
2022-11-09T14:48:02.127Z,1.93
2022-11-09T14:50:33.185Z,4.23
2022-11-09T14:53:04.582Z,1.27
2022-11-09T14:55:34.836Z,1.73
2022-11-09T14:58:04.776Z,6.73
2022-11-09T15:00:35.267Z,3.60
2022-11-09T15:03:25.219Z,2.40
2022-11-09T15:06:05.600Z,3.60
2022-11-09T15:08:33.973Z,2.90
2022-11-09T15:11:02.443Z,4.20
2022-11-09T15:13:34.724Z,2.83
2022-11-09T15:16:05.359Z,3.93
2022-11-09T15:18:36.871Z,4.33
2022-11-09T15:21:13.553Z,2.87
2022-11-09T15:23:43.977Z,3.47
2022-11-09T15:26:37.756Z,4.03
2022-11-09T15:29:36.405Z,2.57
2022-11-09T15:32:14.956Z,5.57
2022-11-09T15:34:53.414Z,2.27
2022-11-09T15:37:25.302Z,3.43
2022-11-09T15:39:54.019Z,5.27
2022-11-09T15:42:22.558Z,3.53
2022-11-09T15:44:58.860Z,5.27
2022-11-09T15:47:33.345Z,5.13
2022-11-09T15:50:02.654Z,5.43
2022-11-09T15:52:31.441Z,4.40
2022-11-09T15:54:59.788Z,3.40
2022-11-09T15:57:28.037Z,4.77
2022-11-09T16:00:00.202Z,5.23
2022-11-09T16:02:28.655Z,4.03
2022-11-09T16:04:59.525Z,3.23
2022-11-09T16:07:32.197Z,6.07
2022-11-09T16:10:07.030Z,4.17
2022-11-09T16:12:36.721Z,9.20
2022-11-09T16:15:08.361Z,6.80
2022-11-09T16:17:38.001Z,4.00
2022-11-09T16:20:13.814Z,3.03
2022-11-09T16:22:42.515Z,5.87
2022-11-09T16:25:12.723Z,2.80
2022-11-09T16:27:49.976Z,5.23
2022-11-09T16:30:22.116Z,4.53
2022-11-09T16:32:53.550Z,5.13
2022-11-09T16:35:27.260Z,5.83
2022-11-09T16:38:00.585Z,5.17
2022-11-09T16:40:29.673Z,6.30
2022-11-09T16:43:00.455Z,4.87
2022-11-09T16:45:33.562Z,3.83
2022-11-09T16:48:05.541Z,2.13
2022-11-09T16:50:41.935Z,5.23
2022-11-09T16:53:16.424Z,4.13
2022-11-09T16:55:48.164Z,4.63
2022-11-09T16:58:16.746Z,4.00
2022-11-09T17:03:36.506Z,2.77
2022-11-09T17:06:05.645Z,3.93
2022-11-09T17:08:34.201Z,2.23
2022-11-09T17:11:02.527Z,3.67
2022-11-09T17:13:30.775Z,4.23
2022-11-09T17:16:06.054Z,5.37
2022-11-09T17:18:34.555Z,6.40
2022-11-09T17:21:03.366Z,4.43
2022-11-09T17:23:32.379Z,3.43
2022-11-09T17:26:04.177Z,4.83
2022-11-09T17:28:35.243Z,6.90
2022-11-09T17:31:12.049Z,6.90
2022-11-09T17:33:42.278Z,6.83
2022-11-09T17:36:13.302Z,4.67
2022-11-09T17:38:44.475Z,8.37
2022-11-09T17:41:15.685Z,6.07
2022-11-09T17:43:48.470Z,3.57
2022-11-09T17:46:24.279Z,4.97
2022-11-09T17:48:54.110Z,4.97
2022-11-09T17:51:22.936Z,4.60
2022-11-09T17:53:52.754Z,3.20
2022-11-09T17:56:22.037Z,4.00
2022-11-09T17:58:50.810Z,4.53
2022-11-09T18:01:22.750Z,7.57
2022-11-09T18:03:51.775Z,5.30
2022-11-09T18:06:23.594Z,7.30
2022-11-09T18:09:19.301Z,5.60
2022-11-09T18:11:42.898Z,4.33
2022-11-09T18:14:13.661Z,4.23
2022-11-09T18:16:45.514Z,5.30
2022-11-09T18:19:14.665Z,5.27
2022-11-09T18:21:45.940Z,7.57
2022-11-09T18:24:16.549Z,6.30
2022-11-09T18:26:49.218Z,6.23
2022-11-09T18:29:19.980Z,6.97
2022-11-09T18:31:51.623Z,9.13
2022-11-09T18:34:22.005Z,5.33
2022-11-09T18:36:51.776Z,7.07
2022-11-09T18:39:21.473Z,3.73
2022-11-09T18:41:58.715Z,4.80
2022-11-09T18:44:28.287Z,5.37
2022-11-09T18:47:04.988Z,4.17
2022-11-09T18:49:35.300Z,5.90
2022-11-09T18:52:05.563Z,5.97
2022-11-09T18:54:36.703Z,7.80
2022-11-09T18:57:06.448Z,6.17
2022-11-09T18:59:38.157Z,3.90
2022-11-09T19:02:14.168Z,3.07
2022-11-09T19:04:43.255Z,5.23
2022-11-09T19:07:12.771Z,3.17
2022-11-09T19:09:42.852Z,4.77
2022-11-09T19:12:13.575Z,3.17
2022-11-09T19:14:45.307Z,3.37
2022-11-09T19:17:18.209Z,5.10
2022-11-09T19:19:48.847Z,4.83
2022-11-09T19:22:20.145Z,3.73
2022-11-09T19:24:52.349Z,5.80
2022-11-09T19:27:25.725Z,5.40
2022-11-09T19:29:55.748Z,3.40
2022-11-09T19:32:33.693Z,3.17
2022-11-09T19:35:03.050Z,5.07
2022-11-09T19:37:32.065Z,3.47
2022-11-09T19:40:03.821Z,5.80
2022-11-09T19:42:33.511Z,3.70
2022-11-09T19:45:03.454Z,2.53
2022-11-09T19:47:34.507Z,1.63
2022-11-09T19:50:04.505Z,3.10
2022-11-09T19:52:34.445Z,3.87
2022-11-09T19:55:03.916Z,5.23
2022-11-09T19:57:35.819Z,4.60
2022-11-09T20:00:06.661Z,3.40
2022-11-09T20:02:37.796Z,5.07
2022-11-09T20:05:07.961Z,3.03
2022-11-09T20:07:39.975Z,4.73
2022-11-09T20:10:12.333Z,4.07
2022-11-09T20:12:57.359Z,3.87
2022-11-09T20:15:27.140Z,4.70
2022-11-09T20:17:58.347Z,6.40
2022-11-09T20:20:28.777Z,3.97
2022-11-09T20:22:59.590Z,6.17
2022-11-09T20:25:29.068Z,5.13
2022-11-09T20:27:58.605Z,5.67
2022-11-09T20:30:29.487Z,5.00
2022-11-09T20:33:02.347Z,7.80
2022-11-09T20:35:45.698Z,5.03
2022-11-09T20:38:16.091Z,3.43
2022-11-09T20:40:45.687Z,5.33
2022-11-09T20:43:15.450Z,7.27
2022-11-09T20:45:45.304Z,4.97
2022-11-09T20:48:46.536Z,4.07
2022-11-09T20:51:09.161Z,9.03
2022-11-09T20:53:39.466Z,5.43
2022-11-09T20:56:08.810Z,4.40
2022-11-09T20:58:38.454Z,8.00
2022-11-09T21:01:09.990Z,3.37
2022-11-09T21:03:40.653Z,3.23
2022-11-09T21:06:10.795Z,4.93
2022-11-09T21:08:40.455Z,3.77
2022-11-09T21:11:13.142Z,5.43
2022-11-09T21:13:44.504Z,5.13
2022-11-09T21:16:15.445Z,5.23
2022-11-09T21:18:45.400Z,4.67
2022-11-09T21:21:15.725Z,5.23
2022-11-09T21:24:01.907Z,5.53
2022-11-09T21:26:54.135Z,7.23
2022-11-09T21:29:42.825Z,3.87
2022-11-09T21:32:12.630Z,3.60
2022-11-09T21:34:42.359Z,5.23
2022-11-09T21:37:11.269Z,4.47
2022-11-09T21:39:39.624Z,10.27
2022-11-09T21:42:08.840Z,3.80
2022-11-09T21:44:37.367Z,7.07
2022-11-09T21:47:06.327Z,9.67
2022-11-09T21:49:34.985Z,4.23
2022-11-09T21:52:04.780Z,6.40
2022-11-09T21:54:33.099Z,4.67
2022-11-09T21:57:01.475Z,5.37
2022-11-09T21:59:29.776Z,2.43
2022-11-09T22:01:58.139Z,4.13
2022-11-09T22:04:26.445Z,6.20
2022-11-09T22:06:54.777Z,2.83
2022-11-09T22:09:24.552Z,3.50
2022-11-09T22:12:10.159Z,3.93
2022-11-09T22:14:55.877Z,4.23
2022-11-09T22:17:24.107Z,5.07
2022-11-09T22:20:09.965Z,5.73
2022-11-09T22:22:38.148Z,4.17
2022-11-09T22:25:09.159Z,4.40
2022-11-09T22:27:37.464Z,6.50
2022-11-09T22:30:06.711Z,4.67
2022-11-09T22:32:35.188Z,5.40
2022-11-09T22:35:03.470Z,3.77
2022-11-09T22:37:33.531Z,5.47
2022-11-09T22:40:02.829Z,3.57
2022-11-09T22:42:32.584Z,7.70
2022-11-09T22:45:00.896Z,4.50
2022-11-09T22:47:29.347Z,3.97
2022-11-09T22:52:22.925Z,5.03
2022-11-09T22:54:51.155Z,4.20
2022-11-09T22:57:19.266Z,8.40
2022-11-09T22:59:48.795Z,4.27
2022-11-09T23:02:16.945Z,5.53
2022-11-09T23:04:45.123Z,5.70
2022-11-09T23:07:13.446Z,7.10
2022-11-09T23:09:41.918Z,7.73
2022-11-09T23:12:10.003Z,2.67
2022-11-09T23:14:55.617Z,4.83
2022-11-09T23:17:48.165Z,4.73
2022-11-09T23:20:16.858Z,3.57
2022-11-09T23:22:45.038Z,5.03
2022-11-09T23:25:31.710Z,4.90
2022-11-09T23:28:00.075Z,5.10
2022-11-09T23:30:28.278Z,7.07
2022-11-09T23:32:57.876Z,5.17
2022-11-09T23:35:26.018Z,2.93
2022-11-09T23:37:59.142Z,4.60
2022-11-09T23:40:27.491Z,5.37
2022-11-09T23:43:01.215Z,5.27
2022-11-09T23:45:29.403Z,2.30
2022-11-09T23:47:58.886Z,5.27
2022-11-09T23:50:27.064Z,4.70
2022-11-09T23:52:58.225Z,4.97
2022-11-09T23:55:26.799Z,4.80
2022-11-09T23:57:55.187Z,7.73
